Terminal Aerodrome Forecast
Issued by NWS Memphis, TN

Home | Current Version | Previous Version | Text Only | Print | Product List | Glossary On
Versions: 1 2 3 4 5 6 7 8 9 10 11 12 13
000
FTUS44 KMEG 041123
TAFJBR
TAF
KJBR 041123Z 0412/0512 00000KT P6SM FEW250
     FM041500 20012KT P6SM SCT070 SCT250
     FM050100 16003KT P6SM SCT070
     FM050600 VRB03KT P6SM FEW250=

USA.gov is the U.S. government's official web portal to all federal, state and local government web resources and services.